sensor_id;sensor_type;location;lat;lon;timestamp;P1;durP1;ratioP1;P2;durP2;ratioP2
13349;SDS011;6744;53.190;6.576;2023-03-03T00:01:16;9.50;;;8.50;;
13349;SDS011;6744;53.190;6.576;2023-03-03T00:03:42;10.30;;;9.30;;
13349;SDS011;6744;53.190;6.576;2023-03-03T00:06:08;10.13;;;9.07;;
13349;SDS011;6744;53.190;6.576;2023-03-03T00:08:35;9.80;;;8.80;;
13349;SDS011;6744;53.190;6.576;2023-03-03T00:11:01;11.50;;;9.50;;
13349;SDS011;6744;53.190;6.576;2023-03-03T00:13:29;10.83;;;9.43;;
13349;SDS011;6744;53.190;6.576;2023-03-03T00:15:56;10.03;;;8.97;;
13349;SDS011;6744;53.190;6.576;2023-03-03T00:18:36;9.23;;;8.30;;
13349;SDS011;6744;53.190;6.576;2023-03-03T00:21:02;9.67;;;8.67;;
13349;SDS011;6744;53.190;6.576;2023-03-03T00:23:35;10.53;;;9.13;;
13349;SDS011;6744;53.190;6.576;2023-03-03T00:26:17;9.27;;;8.30;;
13349;SDS011;6744;53.190;6.576;2023-03-03T00:28:47;9.90;;;8.90;;
13349;SDS011;6744;53.190;6.576;2023-03-03T00:31:16;9.83;;;8.60;;
13349;SDS011;6744;53.190;6.576;2023-03-03T00:33:50;9.03;;;8.03;;
13349;SDS011;6744;53.190;6.576;2023-03-03T00:36:24;9.53;;;8.53;;
13349;SDS011;6744;53.190;6.576;2023-03-03T00:42:12;9.03;;;8.10;;
13349;SDS011;6744;53.190;6.576;2023-03-03T00:44:43;9.37;;;8.37;;
13349;SDS011;6744;53.190;6.576;2023-03-03T00:49:54;8.87;;;7.90;;
13349;SDS011;6744;53.190;6.576;2023-03-03T00:52:44;8.77;;;7.87;;
13349;SDS011;6744;53.190;6.576;2023-03-03T00:55:15;9.50;;;8.50;;
13349;SDS011;6744;53.190;6.576;2023-03-03T00:57:40;8.83;;;7.80;;
13349;SDS011;6744;53.190;6.576;2023-03-03T01:00:05;9.30;;;7.93;;
13349;SDS011;6744;53.190;6.576;2023-03-03T01:02:31;9.00;;;8.10;;
13349;SDS011;6744;53.190;6.576;2023-03-03T01:04:57;9.00;;;7.97;;
13349;SDS011;6744;53.190;6.576;2023-03-03T01:07:22;9.20;;;7.83;;
13349;SDS011;6744;53.190;6.576;2023-03-03T01:09:47;8.23;;;7.33;;
13349;SDS011;6744;53.190;6.576;2023-03-03T01:12:13;8.97;;;8.07;;
13349;SDS011;6744;53.190;6.576;2023-03-03T01:14:39;8.33;;;7.43;;
13349;SDS011;6744;53.190;6.576;2023-03-03T01:17:04;8.73;;;7.83;;
13349;SDS011;6744;53.190;6.576;2023-03-03T01:19:30;8.27;;;7.47;;
13349;SDS011;6744;53.190;6.576;2023-03-03T01:21:55;8.37;;;7.57;;
13349;SDS011;6744;53.190;6.576;2023-03-03T01:24:21;8.20;;;7.33;;
13349;SDS011;6744;53.190;6.576;2023-03-03T01:26:47;8.73;;;7.83;;
13349;SDS011;6744;53.190;6.576;2023-03-03T01:29:12;8.40;;;7.50;;
13349;SDS011;6744;53.190;6.576;2023-03-03T01:31:37;8.57;;;7.67;;
13349;SDS011;6744;53.190;6.576;2023-03-03T01:34:04;7.77;;;6.97;;
13349;SDS011;6744;53.190;6.576;2023-03-03T01:36:31;7.00;;;6.30;;
13349;SDS011;6744;53.190;6.576;2023-03-03T01:38:56;8.13;;;7.13;;
13349;SDS011;6744;53.190;6.576;2023-03-03T01:41:22;8.60;;;7.10;;
13349;SDS011;6744;53.190;6.576;2023-03-03T01:43:48;7.83;;;7.03;;
13349;SDS011;6744;53.190;6.576;2023-03-03T01:46:20;7.93;;;7.13;;
13349;SDS011;6744;53.190;6.576;2023-03-03T01:49:00;7.97;;;7.17;;
13349;SDS011;6744;53.190;6.576;2023-03-03T01:51:28;8.33;;;7.43;;
13349;SDS011;6744;53.190;6.576;2023-03-03T01:53:56;7.73;;;6.93;;
13349;SDS011;6744;53.190;6.576;2023-03-03T01:56:23;8.53;;;7.67;;
13349;SDS011;6744;53.190;6.576;2023-03-03T01:58:53;7.43;;;6.73;;
13349;SDS011;6744;53.190;6.576;2023-03-03T02:01:25;7.40;;;6.60;;
13349;SDS011;6744;53.190;6.576;2023-03-03T02:03:51;7.67;;;6.87;;
13349;SDS011;6744;53.190;6.576;2023-03-03T02:06:23;8.17;;;7.33;;
13349;SDS011;6744;53.190;6.576;2023-03-03T02:11:35;6.93;;;6.23;;
13349;SDS011;6744;53.190;6.576;2023-03-03T02:14:02;7.60;;;6.90;;
13349;SDS011;6744;53.190;6.576;2023-03-03T02:16:27;7.53;;;6.77;;
13349;SDS011;6744;53.190;6.576;2023-03-03T02:18:52;6.97;;;6.33;;
13349;SDS011;6744;53.190;6.576;2023-03-03T02:21:19;7.70;;;6.90;;
13349;SDS011;6744;53.190;6.576;2023-03-03T02:23:53;7.07;;;6.37;;
13349;SDS011;6744;53.190;6.576;2023-03-03T02:26:39;6.47;;;5.87;;
13349;SDS011;6744;53.190;6.576;2023-03-03T02:29:06;6.43;;;5.83;;
13349;SDS011;6744;53.190;6.576;2023-03-03T02:31:32;6.80;;;6.10;;
13349;SDS011;6744;53.190;6.576;2023-03-03T02:33:57;6.50;;;5.90;;
13349;SDS011;6744;53.190;6.576;2023-03-03T02:36:24;6.33;;;5.73;;
13349;SDS011;6744;53.190;6.576;2023-03-03T02:39:00;6.70;;;6.00;;
13349;SDS011;6744;53.190;6.576;2023-03-03T02:44:01;6.03;;;5.43;;
13349;SDS011;6744;53.190;6.576;2023-03-03T02:46:30;6.63;;;6.03;;
13349;SDS011;6744;53.190;6.576;2023-03-03T02:48:57;6.27;;;5.67;;
13349;SDS011;6744;53.190;6.576;2023-03-03T02:51:22;5.50;;;5.00;;
13349;SDS011;6744;53.190;6.576;2023-03-03T02:53:48;5.80;;;5.30;;
13349;SDS011;6744;53.190;6.576;2023-03-03T02:56:13;5.93;;;5.43;;
13349;SDS011;6744;53.190;6.576;2023-03-03T02:58:39;5.97;;;5.47;;
13349;SDS011;6744;53.190;6.576;2023-03-03T03:01:04;5.87;;;5.37;;
13349;SDS011;6744;53.190;6.576;2023-03-03T03:03:30;5.90;;;5.40;;
13349;SDS011;6744;53.190;6.576;2023-03-03T03:05:55;5.80;;;5.30;;
13349;SDS011;6744;53.190;6.576;2023-03-03T03:08:20;5.80;;;5.30;;
13349;SDS011;6744;53.190;6.576;2023-03-03T03:10:46;5.87;;;5.37;;
13349;SDS011;6744;53.190;6.576;2023-03-03T03:13:11;5.30;;;4.80;;
13349;SDS011;6744;53.190;6.576;2023-03-03T03:15:36;5.00;;;4.60;;
13349;SDS011;6744;53.190;6.576;2023-03-03T03:18:02;5.23;;;4.73;;
13349;SDS011;6744;53.190;6.576;2023-03-03T03:20:28;5.53;;;5.03;;
13349;SDS011;6744;53.190;6.576;2023-03-03T03:22:53;5.00;;;4.60;;
13349;SDS011;6744;53.190;6.576;2023-03-03T03:25:18;4.93;;;4.53;;
13349;SDS011;6744;53.190;6.576;2023-03-03T03:27:44;4.77;;;4.27;;
13349;SDS011;6744;53.190;6.576;2023-03-03T03:30:09;4.70;;;4.30;;
13349;SDS011;6744;53.190;6.576;2023-03-03T03:32:35;4.97;;;4.57;;
13349;SDS011;6744;53.190;6.576;2023-03-03T03:35:00;4.87;;;4.47;;
13349;SDS011;6744;53.190;6.576;2023-03-03T03:37:26;4.80;;;4.30;;
13349;SDS011;6744;53.190;6.576;2023-03-03T03:39:51;4.53;;;4.13;;
13349;SDS011;6744;53.190;6.576;2023-03-03T03:42:17;4.47;;;4.07;;
13349;SDS011;6744;53.190;6.576;2023-03-03T03:44:43;4.10;;;3.80;;
13349;SDS011;6744;53.190;6.576;2023-03-03T03:47:08;4.20;;;3.90;;
13349;SDS011;6744;53.190;6.576;2023-03-03T03:49:33;4.27;;;3.90;;
13349;SDS011;6744;53.190;6.576;2023-03-03T03:51:59;3.77;;;3.47;;
13349;SDS011;6744;53.190;6.576;2023-03-03T03:54:24;4.50;;;4.10;;
13349;SDS011;6744;53.190;6.576;2023-03-03T03:56:49;4.13;;;3.83;;
13349;SDS011;6744;53.190;6.576;2023-03-03T03:59:15;3.63;;;3.33;;
13349;SDS011;6744;53.190;6.576;2023-03-03T04:01:40;3.90;;;3.60;;
13349;SDS011;6744;53.190;6.576;2023-03-03T04:04:05;3.87;;;3.57;;
13349;SDS011;6744;53.190;6.576;2023-03-03T04:06:31;4.03;;;3.73;;
13349;SDS011;6744;53.190;6.576;2023-03-03T04:08:56;4.10;;;3.80;;
13349;SDS011;6744;53.190;6.576;2023-03-03T04:11:21;3.73;;;3.43;;
13349;SDS011;6744;53.190;6.576;2023-03-03T04:13:47;3.57;;;3.27;;
13349;SDS011;6744;53.190;6.576;2023-03-03T04:16:13;3.80;;;3.50;;
13349;SDS011;6744;53.190;6.576;2023-03-03T04:18:38;3.70;;;3.40;;
13349;SDS011;6744;53.190;6.576;2023-03-03T04:21:04;4.07;;;3.67;;
13349;SDS011;6744;53.190;6.576;2023-03-03T04:23:29;3.87;;;3.57;;
13349;SDS011;6744;53.190;6.576;2023-03-03T04:25:54;3.73;;;3.43;;
13349;SDS011;6744;53.190;6.576;2023-03-03T04:28:20;3.90;;;3.60;;
13349;SDS011;6744;53.190;6.576;2023-03-03T04:30:46;3.57;;;3.27;;
13349;SDS011;6744;53.190;6.576;2023-03-03T04:33:11;3.57;;;3.27;;
13349;SDS011;6744;53.190;6.576;2023-03-03T04:35:37;3.50;;;3.30;;
13349;SDS011;6744;53.190;6.576;2023-03-03T04:38:02;3.53;;;3.27;;
13349;SDS011;6744;53.190;6.576;2023-03-03T04:40:28;3.67;;;3.37;;
13349;SDS011;6744;53.190;6.576;2023-03-03T04:42:54;3.23;;;3.03;;
13349;SDS011;6744;53.190;6.576;2023-03-03T04:45:19;3.47;;;3.17;;
13349;SDS011;6744;53.190;6.576;2023-03-03T04:47:45;3.20;;;3.00;;
13349;SDS011;6744;53.190;6.576;2023-03-03T04:50:10;3.37;;;3.17;;
13349;SDS011;6744;53.190;6.576;2023-03-03T04:52:36;3.30;;;3.10;;
13349;SDS011;6744;53.190;6.576;2023-03-03T04:55:01;3.43;;;3.23;;
13349;SDS011;6744;53.190;6.576;2023-03-03T04:57:26;2.90;;;2.70;;
13349;SDS011;6744;53.190;6.576;2023-03-03T04:59:52;3.10;;;2.90;;
13349;SDS011;6744;53.190;6.576;2023-03-03T05:02:18;3.27;;;3.07;;
13349;SDS011;6744;53.190;6.576;2023-03-03T05:04:43;3.10;;;2.90;;
13349;SDS011;6744;53.190;6.576;2023-03-03T05:07:09;3.57;;;3.27;;
13349;SDS011;6744;53.190;6.576;2023-03-03T05:09:34;3.57;;;3.27;;
13349;SDS011;6744;53.190;6.576;2023-03-03T05:11:59;3.27;;;3.07;;
13349;SDS011;6744;53.190;6.576;2023-03-03T05:14:25;3.20;;;3.00;;
13349;SDS011;6744;53.190;6.576;2023-03-03T05:16:51;3.10;;;2.90;;
13349;SDS011;6744;53.190;6.576;2023-03-03T05:19:16;3.33;;;3.13;;
13349;SDS011;6744;53.190;6.576;2023-03-03T05:21:41;3.40;;;3.10;;
13349;SDS011;6744;53.190;6.576;2023-03-03T05:24:08;3.47;;;3.23;;
13349;SDS011;6744;53.190;6.576;2023-03-03T05:26:33;3.60;;;3.30;;
13349;SDS011;6744;53.190;6.576;2023-03-03T05:28:59;3.23;;;3.00;;
13349;SDS011;6744;53.190;6.576;2023-03-03T05:31:24;2.90;;;2.70;;
13349;SDS011;6744;53.190;6.576;2023-03-03T05:33:51;3.13;;;2.93;;
13349;SDS011;6744;53.190;6.576;2023-03-03T05:36:17;3.47;;;3.27;;
13349;SDS011;6744;53.190;6.576;2023-03-03T05:38:42;2.63;;;2.43;;
13349;SDS011;6744;53.190;6.576;2023-03-03T05:41:07;3.00;;;2.80;;
13349;SDS011;6744;53.190;6.576;2023-03-03T05:43:33;3.50;;;3.20;;
13349;SDS011;6744;53.190;6.576;2023-03-03T05:45:58;3.00;;;2.80;;
13349;SDS011;6744;53.190;6.576;2023-03-03T05:48:24;2.90;;;2.70;;
13349;SDS011;6744;53.190;6.576;2023-03-03T05:50:50;2.80;;;2.60;;
13349;SDS011;6744;53.190;6.576;2023-03-03T05:53:16;3.03;;;2.83;;
13349;SDS011;6744;53.190;6.576;2023-03-03T05:55:41;2.97;;;2.77;;
13349;SDS011;6744;53.190;6.576;2023-03-03T05:58:06;3.00;;;2.80;;
13349;SDS011;6744;53.190;6.576;2023-03-03T06:00:32;3.20;;;3.00;;
13349;SDS011;6744;53.190;6.576;2023-03-03T06:02:57;2.93;;;2.73;;
13349;SDS011;6744;53.190;6.576;2023-03-03T06:05:22;3.10;;;2.90;;
13349;SDS011;6744;53.190;6.576;2023-03-03T06:07:48;2.87;;;2.67;;
13349;SDS011;6744;53.190;6.576;2023-03-03T06:10:13;3.13;;;2.93;;
13349;SDS011;6744;53.190;6.576;2023-03-03T06:12:38;3.00;;;2.80;;
13349;SDS011;6744;53.190;6.576;2023-03-03T06:15:06;3.13;;;2.83;;
13349;SDS011;6744;53.190;6.576;2023-03-03T06:17:32;2.93;;;2.73;;
13349;SDS011;6744;53.190;6.576;2023-03-03T06:19:57;2.70;;;2.50;;
13349;SDS011;6744;53.190;6.576;2023-03-03T06:22:23;3.07;;;2.87;;
13349;SDS011;6744;53.190;6.576;2023-03-03T06:24:48;2.97;;;2.77;;
13349;SDS011;6744;53.190;6.576;2023-03-03T06:27:13;2.90;;;2.70;;
13349;SDS011;6744;53.190;6.576;2023-03-03T06:29:42;2.63;;;2.43;;
13349;SDS011;6744;53.190;6.576;2023-03-03T06:32:07;2.97;;;2.77;;
13349;SDS011;6744;53.190;6.576;2023-03-03T06:34:32;3.37;;;3.07;;
13349;SDS011;6744;53.190;6.576;2023-03-03T06:36:58;3.03;;;2.83;;
13349;SDS011;6744;53.190;6.576;2023-03-03T06:39:23;3.13;;;2.93;;
13349;SDS011;6744;53.190;6.576;2023-03-03T06:41:49;3.03;;;2.83;;
13349;SDS011;6744;53.190;6.576;2023-03-03T06:44:14;2.90;;;2.70;;
13349;SDS011;6744;53.190;6.576;2023-03-03T06:46:39;3.17;;;2.90;;
13349;SDS011;6744;53.190;6.576;2023-03-03T06:49:05;3.03;;;2.83;;
13349;SDS011;6744;53.190;6.576;2023-03-03T06:51:34;2.93;;;2.73;;
13349;SDS011;6744;53.190;6.576;2023-03-03T06:54:16;3.33;;;3.13;;
13349;SDS011;6744;53.190;6.576;2023-03-03T06:56:43;3.03;;;2.83;;
13349;SDS011;6744;53.190;6.576;2023-03-03T07:01:41;3.20;;;3.00;;
13349;SDS011;6744;53.190;6.576;2023-03-03T07:06:44;3.20;;;2.90;;
13349;SDS011;6744;53.190;6.576;2023-03-03T07:09:23;3.20;;;3.00;;
13349;SDS011;6744;53.190;6.576;2023-03-03T07:11:50;3.10;;;2.90;;
13349;SDS011;6744;53.190;6.576;2023-03-03T07:14:17;3.33;;;3.03;;
13349;SDS011;6744;53.190;6.576;2023-03-03T07:16:43;3.13;;;2.93;;
13349;SDS011;6744;53.190;6.576;2023-03-03T07:19:43;3.20;;;3.00;;
13349;SDS011;6744;53.190;6.576;2023-03-03T07:22:13;3.07;;;2.87;;
13349;SDS011;6744;53.190;6.576;2023-03-03T07:24:50;3.43;;;3.13;;
13349;SDS011;6744;53.190;6.576;2023-03-03T07:29:52;3.57;;;3.27;;
13349;SDS011;6744;53.190;6.576;2023-03-03T07:32:25;3.67;;;3.37;;
13349;SDS011;6744;53.190;6.576;2023-03-03T07:35:12;3.33;;;3.00;;
13349;SDS011;6744;53.190;6.576;2023-03-03T07:37:49;3.20;;;3.00;;
13349;SDS011;6744;53.190;6.576;2023-03-03T07:43:00;3.33;;;3.03;;
13349;SDS011;6744;53.190;6.576;2023-03-03T07:45:37;3.30;;;3.00;;
13349;SDS011;6744;53.190;6.576;2023-03-03T07:48:15;3.30;;;3.00;;
13349;SDS011;6744;53.190;6.576;2023-03-03T07:50:43;3.40;;;3.10;;
13349;SDS011;6744;53.190;6.576;2023-03-03T07:53:14;3.37;;;3.10;;
13349;SDS011;6744;53.190;6.576;2023-03-03T07:55:48;3.70;;;3.40;;
13349;SDS011;6744;53.190;6.576;2023-03-03T08:03:49;4.13;;;3.80;;
13349;SDS011;6744;53.190;6.576;2023-03-03T08:06:58;3.43;;;3.13;;
13349;SDS011;6744;53.190;6.576;2023-03-03T08:11:34;3.60;;;3.30;;
13349;SDS011;6744;53.190;6.576;2023-03-03T08:13:59;3.47;;;3.17;;
13349;SDS011;6744;53.190;6.576;2023-03-03T08:16:35;4.13;;;3.73;;
13349;SDS011;6744;53.190;6.576;2023-03-03T08:19:03;3.80;;;3.50;;
13349;SDS011;6744;53.190;6.576;2023-03-03T08:21:29;3.87;;;3.57;;
13349;SDS011;6744;53.190;6.576;2023-03-03T08:23:56;4.17;;;3.50;;
13349;SDS011;6744;53.190;6.576;2023-03-03T08:26:22;3.73;;;3.43;;
13349;SDS011;6744;53.190;6.576;2023-03-03T08:28:48;3.70;;;3.27;;
13349;SDS011;6744;53.190;6.576;2023-03-03T08:31:14;3.97;;;3.57;;
13349;SDS011;6744;53.190;6.576;2023-03-03T08:33:41;3.70;;;3.40;;
13349;SDS011;6744;53.190;6.576;2023-03-03T08:36:07;3.83;;;3.43;;
13349;SDS011;6744;53.190;6.576;2023-03-03T08:38:33;3.77;;;3.37;;
13349;SDS011;6744;53.190;6.576;2023-03-03T08:40:58;3.83;;;3.37;;
13349;SDS011;6744;53.190;6.576;2023-03-03T08:43:24;3.80;;;3.50;;
13349;SDS011;6744;53.190;6.576;2023-03-03T08:45:50;3.80;;;3.50;;
13349;SDS011;6744;53.190;6.576;2023-03-03T08:48:17;4.20;;;3.40;;
13349;SDS011;6744;53.190;6.576;2023-03-03T08:50:43;4.00;;;3.60;;
13349;SDS011;6744;53.190;6.576;2023-03-03T08:53:09;4.03;;;3.63;;
13349;SDS011;6744;53.190;6.576;2023-03-03T08:55:35;3.70;;;3.40;;
13349;SDS011;6744;53.190;6.576;2023-03-03T08:58:00;4.10;;;3.40;;
13349;SDS011;6744;53.190;6.576;2023-03-03T09:00:26;3.80;;;3.50;;
13349;SDS011;6744;53.190;6.576;2023-03-03T09:02:51;3.47;;;3.17;;
13349;SDS011;6744;53.190;6.576;2023-03-03T09:05:18;3.63;;;3.33;;
13349;SDS011;6744;53.190;6.576;2023-03-03T09:07:44;3.40;;;3.10;;
13349;SDS011;6744;53.190;6.576;2023-03-03T09:10:11;3.50;;;3.20;;
13349;SDS011;6744;53.190;6.576;2023-03-03T09:12:39;3.80;;;3.47;;
13349;SDS011;6744;53.190;6.576;2023-03-03T09:15:17;3.60;;;3.30;;
13349;SDS011;6744;53.190;6.576;2023-03-03T09:17:44;3.53;;;3.23;;
13349;SDS011;6744;53.190;6.576;2023-03-03T09:26:17;3.17;;;2.90;;
13349;SDS011;6744;53.190;6.576;2023-03-03T09:28:46;3.20;;;3.00;;
13349;SDS011;6744;53.190;6.576;2023-03-03T09:31:23;3.60;;;2.73;;
13349;SDS011;6744;53.190;6.576;2023-03-03T09:33:48;3.70;;;3.00;;
13349;SDS011;6744;53.190;6.576;2023-03-03T09:36:25;3.47;;;3.23;;
13349;SDS011;6744;53.190;6.576;2023-03-03T09:38:53;3.10;;;2.80;;
13349;SDS011;6744;53.190;6.576;2023-03-03T09:41:27;3.07;;;2.77;;
13349;SDS011;6744;53.190;6.576;2023-03-03T09:52:02;3.10;;;2.83;;
13349;SDS011;6744;53.190;6.576;2023-03-03T10:05:43;2.90;;;2.70;;
13349;SDS011;6744;53.190;6.576;2023-03-03T10:17:05;3.10;;;2.80;;
13349;SDS011;6744;53.190;6.576;2023-03-03T10:33:35;3.20;;;2.90;;
13349;SDS011;6744;53.190;6.576;2023-03-03T10:38:53;2.63;;;2.43;;
13349;SDS011;6744;53.190;6.576;2023-03-03T10:46:55;2.80;;;2.60;;
13349;SDS011;6744;53.190;6.576;2023-03-03T11:08:08;3.77;;;2.43;;
13349;SDS011;6744;53.190;6.576;2023-03-03T11:13:40;2.40;;;2.20;;
13349;SDS011;6744;53.190;6.576;2023-03-03T11:32:57;3.17;;;1.70;;
13349;SDS011;6744;53.190;6.576;2023-03-03T11:38:29;2.33;;;1.57;;
13349;SDS011;6744;53.190;6.576;2023-03-03T11:41:07;1.80;;;1.67;;
13349;SDS011;6744;53.190;6.576;2023-03-03T11:43:52;2.27;;;1.60;;
13349;SDS011;6744;53.190;6.576;2023-03-03T11:46:21;1.93;;;1.50;;
13349;SDS011;6744;53.190;6.576;2023-03-03T11:48:56;2.07;;;1.20;;
13349;SDS011;6744;53.190;6.576;2023-03-03T11:56:43;1.03;;;0.97;;
13349;SDS011;6744;53.190;6.576;2023-03-03T12:02:19;2.30;;;0.97;;
13349;SDS011;6744;53.190;6.576;2023-03-03T12:07:40;1.07;;;0.90;;
13349;SDS011;6744;53.190;6.576;2023-03-03T12:12:42;1.40;;;1.03;;
13349;SDS011;6744;53.190;6.576;2023-03-03T12:15:18;2.50;;;0.90;;
13349;SDS011;6744;53.190;6.576;2023-03-03T12:23:23;2.00;;;0.90;;
13349;SDS011;6744;53.190;6.576;2023-03-03T12:26:11;1.63;;;0.77;;
13349;SDS011;6744;53.190;6.576;2023-03-03T12:28:43;1.10;;;0.60;;
13349;SDS011;6744;53.190;6.576;2023-03-03T12:33:54;3.07;;;1.00;;
13349;SDS011;6744;53.190;6.576;2023-03-03T12:41:52;2.50;;;0.87;;
13349;SDS011;6744;53.190;6.576;2023-03-03T13:05:39;2.63;;;0.80;;
13349;SDS011;6744;53.190;6.576;2023-03-03T13:13:59;2.00;;;0.70;;
13349;SDS011;6744;53.190;6.576;2023-03-03T13:16:52;1.27;;;0.60;;
13349;SDS011;6744;53.190;6.576;2023-03-03T13:19:27;1.97;;;0.90;;
13349;SDS011;6744;53.190;6.576;2023-03-03T13:21:58;2.50;;;0.90;;
13349;SDS011;6744;53.190;6.576;2023-03-03T13:24:28;3.87;;;0.90;;
13349;SDS011;6744;53.190;6.576;2023-03-03T13:26:57;3.93;;;0.90;;
13349;SDS011;6744;53.190;6.576;2023-03-03T13:29:29;4.57;;;1.47;;
13349;SDS011;6744;53.190;6.576;2023-03-03T13:32:02;4.13;;;1.10;;
13349;SDS011;6744;53.190;6.576;2023-03-03T13:34:38;4.90;;;0.90;;
13349;SDS011;6744;53.190;6.576;2023-03-03T13:37:34;6.60;;;1.47;;
13349;SDS011;6744;53.190;6.576;2023-03-03T13:40:45;4.67;;;1.20;;
13349;SDS011;6744;53.190;6.576;2023-03-03T13:43:16;4.03;;;1.13;;
13349;SDS011;6744;53.190;6.576;2023-03-03T13:50:59;5.70;;;1.57;;
13349;SDS011;6744;53.190;6.576;2023-03-03T13:59:12;9.10;;;1.57;;
13349;SDS011;6744;53.190;6.576;2023-03-03T14:05:21;7.73;;;1.70;;
13349;SDS011;6744;53.190;6.576;2023-03-03T14:07:52;9.10;;;1.63;;
13349;SDS011;6744;53.190;6.576;2023-03-03T14:10:25;8.97;;;2.03;;
13349;SDS011;6744;53.190;6.576;2023-03-03T14:21:13;7.97;;;2.00;;
13349;SDS011;6744;53.190;6.576;2023-03-03T14:26:58;7.10;;;1.90;;
13349;SDS011;6744;53.190;6.576;2023-03-03T14:31:55;7.37;;;1.50;;
13349;SDS011;6744;53.190;6.576;2023-03-03T14:36:47;8.13;;;1.97;;
13349;SDS011;6744;53.190;6.576;2023-03-03T14:39:33;8.73;;;2.17;;
13349;SDS011;6744;53.190;6.576;2023-03-03T14:42:46;10.60;;;2.00;;
13349;SDS011;6744;53.190;6.576;2023-03-03T14:45:14;8.13;;;1.97;;
13349;SDS011;6744;53.190;6.576;2023-03-03T14:47:45;9.30;;;2.27;;
13349;SDS011;6744;53.190;6.576;2023-03-03T14:50:56;9.50;;;2.23;;
13349;SDS011;6744;53.190;6.576;2023-03-03T14:55:44;10.83;;;2.37;;
13349;SDS011;6744;53.190;6.576;2023-03-03T14:58:25;9.67;;;2.17;;
13349;SDS011;6744;53.190;6.576;2023-03-03T15:01:06;8.97;;;2.10;;
13349;SDS011;6744;53.190;6.576;2023-03-03T15:04:32;7.67;;;1.83;;
13349;SDS011;6744;53.190;6.576;2023-03-03T15:06:48;9.97;;;1.93;;
13349;SDS011;6744;53.190;6.576;2023-03-03T15:12:16;8.93;;;2.20;;
13349;SDS011;6744;53.190;6.576;2023-03-03T15:14:44;10.40;;;2.37;;
13349;SDS011;6744;53.190;6.576;2023-03-03T15:17:32;5.03;;;1.80;;
13349;SDS011;6744;53.190;6.576;2023-03-03T15:26:03;6.10;;;1.60;;
13349;SDS011;6744;53.190;6.576;2023-03-03T15:34:01;7.80;;;1.90;;
13349;SDS011;6744;53.190;6.576;2023-03-03T15:36:59;7.73;;;2.50;;
13349;SDS011;6744;53.190;6.576;2023-03-03T15:42:41;7.73;;;1.93;;
13349;SDS011;6744;53.190;6.576;2023-03-03T15:45:17;10.63;;;2.57;;
13349;SDS011;6744;53.190;6.576;2023-03-03T15:53:33;7.77;;;2.10;;
13349;SDS011;6744;53.190;6.576;2023-03-03T16:01:52;6.97;;;1.80;;
13349;SDS011;6744;53.190;6.576;2023-03-03T16:04:27;8.43;;;2.00;;
13349;SDS011;6744;53.190;6.576;2023-03-03T16:09:55;7.57;;;2.13;;
13349;SDS011;6744;53.190;6.576;2023-03-03T16:17:35;8.67;;;2.20;;
13349;SDS011;6744;53.190;6.576;2023-03-03T16:25:41;8.57;;;2.17;;
13349;SDS011;6744;53.190;6.576;2023-03-03T16:31:00;11.13;;;2.37;;
13349;SDS011;6744;53.190;6.576;2023-03-03T16:38:37;8.93;;;2.17;;
13349;SDS011;6744;53.190;6.576;2023-03-03T16:41:06;8.60;;;2.00;;
13349;SDS011;6744;53.190;6.576;2023-03-03T16:46:30;10.30;;;2.60;;
13349;SDS011;6744;53.190;6.576;2023-03-03T16:49:00;9.70;;;2.03;;
13349;SDS011;6744;53.190;6.576;2023-03-03T16:57:12;9.50;;;2.27;;
13349;SDS011;6744;53.190;6.576;2023-03-03T17:08:04;8.77;;;2.30;;
13349;SDS011;6744;53.190;6.576;2023-03-03T17:10:44;8.33;;;2.27;;
13349;SDS011;6744;53.190;6.576;2023-03-03T17:27:20;9.60;;;2.67;;
13349;SDS011;6744;53.190;6.576;2023-03-03T17:30:05;11.97;;;3.40;;
13349;SDS011;6744;53.190;6.576;2023-03-03T17:32:34;8.63;;;3.50;;
13349;SDS011;6744;53.190;6.576;2023-03-03T17:35:39;7.53;;;2.70;;
13349;SDS011;6744;53.190;6.576;2023-03-03T17:40:54;11.30;;;2.97;;
13349;SDS011;6744;53.190;6.576;2023-03-03T17:43:31;8.53;;;2.90;;
13349;SDS011;6744;53.190;6.576;2023-03-03T17:46:03;9.90;;;3.20;;
13349;SDS011;6744;53.190;6.576;2023-03-03T17:59:54;7.37;;;2.40;;
13349;SDS011;6744;53.190;6.576;2023-03-03T18:05:11;9.53;;;2.83;;
13349;SDS011;6744;53.190;6.576;2023-03-03T18:13:39;10.43;;;2.80;;
13349;SDS011;6744;53.190;6.576;2023-03-03T18:16:21;9.67;;;3.00;;
13349;SDS011;6744;53.190;6.576;2023-03-03T18:24:24;8.87;;;2.60;;
13349;SDS011;6744;53.190;6.576;2023-03-03T18:26:52;8.50;;;2.47;;
13349;SDS011;6744;53.190;6.576;2023-03-03T18:29:21;8.90;;;2.60;;
13349;SDS011;6744;53.190;6.576;2023-03-03T18:50:44;6.57;;;2.10;;
13349;SDS011;6744;53.190;6.576;2023-03-03T18:53:13;6.50;;;2.33;;
13349;SDS011;6744;53.190;6.576;2023-03-03T18:55:57;7.83;;;2.50;;
13349;SDS011;6744;53.190;6.576;2023-03-03T19:00:59;6.87;;;2.23;;
13349;SDS011;6744;53.190;6.576;2023-03-03T19:06:02;5.30;;;2.03;;
13349;SDS011;6744;53.190;6.576;2023-03-03T19:08:43;9.50;;;2.27;;
13349;SDS011;6744;53.190;6.576;2023-03-03T19:11:36;8.93;;;2.53;;
13349;SDS011;6744;53.190;6.576;2023-03-03T19:16:37;7.40;;;2.37;;
13349;SDS011;6744;53.190;6.576;2023-03-03T19:19:05;7.20;;;2.53;;
13349;SDS011;6744;53.190;6.576;2023-03-03T19:21:35;6.50;;;2.37;;
13349;SDS011;6744;53.190;6.576;2023-03-03T19:24:02;5.17;;;2.37;;
13349;SDS011;6744;53.190;6.576;2023-03-03T19:26:54;5.57;;;2.23;;
13349;SDS011;6744;53.190;6.576;2023-03-03T19:35:08;7.90;;;2.77;;
13349;SDS011;6744;53.190;6.576;2023-03-03T19:43:34;8.20;;;2.83;;
13349;SDS011;6744;53.190;6.576;2023-03-03T19:46:31;6.77;;;2.20;;
13349;SDS011;6744;53.190;6.576;2023-03-03T19:51:49;7.90;;;2.27;;
13349;SDS011;6744;53.190;6.576;2023-03-03T19:54:36;6.77;;;1.90;;
13349;SDS011;6744;53.190;6.576;2023-03-03T19:57:04;6.60;;;2.27;;
13349;SDS011;6744;53.190;6.576;2023-03-03T20:00:02;7.40;;;2.10;;
13349;SDS011;6744;53.190;6.576;2023-03-03T20:05:20;7.30;;;2.10;;
13349;SDS011;6744;53.190;6.576;2023-03-03T20:08:03;6.77;;;2.10;;
13349;SDS011;6744;53.190;6.576;2023-03-03T20:10:46;7.07;;;2.60;;
13349;SDS011;6744;53.190;6.576;2023-03-03T20:19:23;5.70;;;2.07;;
13349;SDS011;6744;53.190;6.576;2023-03-03T20:30:20;5.17;;;2.00;;
13349;SDS011;6744;53.190;6.576;2023-03-03T20:36:16;6.23;;;2.10;;
13349;SDS011;6744;53.190;6.576;2023-03-03T20:44:58;5.30;;;1.97;;
13349;SDS011;6744;53.190;6.576;2023-03-03T21:03:32;6.20;;;1.97;;
13349;SDS011;6744;53.190;6.576;2023-03-03T21:08:41;4.87;;;1.97;;
13349;SDS011;6744;53.190;6.576;2023-03-03T21:11:15;4.63;;;2.10;;
13349;SDS011;6744;53.190;6.576;2023-03-03T21:13:42;5.53;;;2.10;;
13349;SDS011;6744;53.190;6.576;2023-03-03T21:16:27;6.43;;;1.70;;
13349;SDS011;6744;53.190;6.576;2023-03-03T21:18:55;5.13;;;1.97;;
13349;SDS011;6744;53.190;6.576;2023-03-03T21:21:22;6.57;;;1.93;;
13349;SDS011;6744;53.190;6.576;2023-03-03T21:23:48;4.77;;;1.93;;
13349;SDS011;6744;53.190;6.576;2023-03-03T21:26:15;5.80;;;1.87;;
13349;SDS011;6744;53.190;6.576;2023-03-03T21:29:17;4.10;;;1.53;;
13349;SDS011;6744;53.190;6.576;2023-03-03T21:31:48;5.37;;;1.70;;
13349;SDS011;6744;53.190;6.576;2023-03-03T21:34:18;4.77;;;1.57;;
13349;SDS011;6744;53.190;6.576;2023-03-03T21:36:47;7.17;;;2.10;;
13349;SDS011;6744;53.190;6.576;2023-03-03T21:41:58;5.87;;;1.83;;
13349;SDS011;6744;53.190;6.576;2023-03-03T21:44:35;5.57;;;1.70;;
13349;SDS011;6744;53.190;6.576;2023-03-03T21:47:05;5.23;;;1.50;;
13349;SDS011;6744;53.190;6.576;2023-03-03T21:49:32;5.87;;;1.90;;
13349;SDS011;6744;53.190;6.576;2023-03-03T21:51:57;6.20;;;1.57;;
13349;SDS011;6744;53.190;6.576;2023-03-03T21:54:23;4.17;;;1.37;;
13349;SDS011;6744;53.190;6.576;2023-03-03T21:56:48;3.73;;;1.33;;
13349;SDS011;6744;53.190;6.576;2023-03-03T21:59:14;6.47;;;1.70;;
13349;SDS011;6744;53.190;6.576;2023-03-03T22:01:40;4.73;;;1.80;;
13349;SDS011;6744;53.190;6.576;2023-03-03T22:04:05;6.17;;;1.30;;
13349;SDS011;6744;53.190;6.576;2023-03-03T22:06:31;5.60;;;1.57;;
13349;SDS011;6744;53.190;6.576;2023-03-03T22:08:56;3.97;;;1.30;;
13349;SDS011;6744;53.190;6.576;2023-03-03T22:11:22;4.67;;;1.60;;
13349;SDS011;6744;53.190;6.576;2023-03-03T22:13:47;4.40;;;1.67;;